Latest Coastal Weather Observations for Onslow Airport

IDW60701

Issued at 1:42 am WST Saturday 23 May 2015 (issued every 10 minutes, with the page automatically refreshed every 10 minutes)

About coastal observations | Map of coastal stations | Coastal observations for WA | Marine services | Other Formats
Station Details ID: 005017 Name: ONSLOW AIRPORT Lat: -21.67 Lon: 115.11 Height: 10.5 m
Data from the previous 72 hours. | See also: Recent months at Onslow Airport
Date/Time
WST
Temp

°C
Wind Pressure Rain
since 9am
mm
Weather Cloud Vis
km
Sea
Height
m
Swell
Dir
 
Speed
knots
Gust
knots
hPa Trend Height
m
Period
s
Dir
23/01:30am 20.7 ESE 7 9 1017.1 - 3.2 - - - - - - -
23/01:00am 20.6 ESE 7 8 1017.2 - 3.2 - - - - - - -
23/12:30am 20.5 SSE 8 10 1017.3 - 3.2 - - - - - - -
23/12:00am 20.4 SE 8 10 1017.3 - 3.2 - - - - - - -
 
Date/Time
WST
Temp

°C
Wind Pressure Rain
since 9am
mm
Weather Cloud Vis
km
Sea
Height
m
Swell
Dir
 
Speed
knots
Gust
knots
hPa Trend Height
m
Period
s
Dir
22/11:30pm 20.5 SE 7 8 1017.9 - 3.2 - - - - - - -
22/11:00pm 20.7 SE 5 7 1018.1 - 3.2 - - - - - - -
22/10:30pm 20.7 SE 7 8 1017.8 - 3.2 - - - - - - -
22/10:00pm 20.8 SE 5 6 1018.1 - 3.2 - - - - - - -
22/09:30pm 20.8 ESE 7 9 1018.1 - 3.2 - - - - - - -
22/09:00pm 21.0 E 7 8 1017.9 - 3.2 - - - - - - -
22/08:30pm 21.1 E 8 9 1017.7 - 3.2 - - - - - - -
22/08:00pm 21.0 ESE 8 9 1017.6 - 3.2 - - - - - - -
22/07:30pm 21.3 ESE 7 8 1017.6 - 3.0 - - - - - - -
22/07:00pm 21.4 SE 4 5 1017.4 - 1.2 - - - - - - -
22/06:30pm 21.5 E 5 6 1017.0 - 1.0 - - - - - - -
22/06:00pm 21.7 ENE 5 6 1016.8 - 1.0 - - - - - - -
22/05:30pm 21.7 NE 6 8 1016.6 - 1.0 - - - - - - -
22/05:00pm 22.1 NE 6 9 1016.3 - 1.0 - - - - - - -
22/04:30pm 22.3 CALM 0 0 1016.2 - 1.0 - - - - - - -
22/04:00pm 22.2 CALM 0 0 1015.9 - 1.0 - - - - - - -
22/03:30pm 21.6 WSW 4 4 1016.1 - 0.8 - - - - - - -
22/03:00pm 21.7 WSW 5 7 1016.4 - 0.2 Recent precip. - - - - - -
22/02:30pm 22.8 W 4 6 1016.3 - 0.2 - - - - - - -
22/02:00pm 22.5 N 7 10 1016.3 - 0.0 - - - - - - -
22/01:30pm 23.6 NNE 9 12 1016.5 - 0.0 - - - - - - -
22/01:00pm 23.5 N 7 9 1016.8 - 0.0 - - - - - - -
22/12:30pm 23.8 N 8 11 1016.9 - 0.0 - - - - - - -
22/12:00pm 25.2 NNE 8 11 1017.0 - 0.0 - - - - - - -
22/11:30am 23.3 NNE 8 11 1017.5 - 0.0 - - - - - - -
22/11:00am 23.5 NE 9 12 1018.0 - 0.0 - - - - - - -
22/10:30am 23.7 NNE 11 13 1018.3 - 0.0 - - - - - - -
22/10:00am 23.3 NE 10 14 1018.5 - 0.0 - - - - - - -
22/09:30am 23.7 NE 7 10 1018.6 - 0.0 - - - - - - -
22/09:00am 22.4 E 8 10 1018.5 - - - - - - - - -
22/08:30am 20.9 E 8 9 1018.2 - - - - - - - - -
22/08:00am 20.8 E 7 9 1018.1 - - - - - - - - -
22/07:30am 20.5 E 8 10 1017.8 - - - - - - - - -
22/07:00am 20.2 E 5 7 1017.6 - - - - - - - - -
22/06:30am 20.6 ENE 5 6 1017.4 - - - - - - - - -
22/06:00am 20.8 E 4 6 1017.3 - - - - - - - - -
22/05:30am 20.7 ENE 5 6 1016.9 - - - - - - - - -
22/05:00am 20.6 E 5 6 1016.8 - - - - - - - - -
22/04:30am 20.6 ENE 5 6 1017.0 - - - - - - - - -
22/04:00am 20.4 ENE 5 6 1017.0 - - - - - - - - -
22/03:30am 20.5 NE 6 7 1017.3 - - - - - - - - -
22/03:00am 20.8 NE 7 9 1017.1 - 0.0 - - - - - - -
22/02:30am 20.9 ENE 7 8 1017.3 - - - - - - - - -
22/02:00am 20.6 ENE 6 7 1017.6 - - - - - - - - -
22/01:30am 21.1 NE 7 8 1017.7 - - - - - - - - -
22/01:00am 21.6 NE 6 9 1017.5 - - - - - - - - -
22/12:30am 21.8 NE 6 7 1017.8 - - - - - - - - -
22/12:00am 21.8 NNE 8 9 1017.8 - - - - - - - - -
 
Date/Time
WST
Temp

°C
Wind Pressure Rain
since 9am
mm
Weather Cloud Vis
km
Sea
Height
m
Swell
Dir
 
Speed
knots
Gust
knots
hPa Trend Height
m
Period
s
Dir
21/11:30pm 21.6 NNE 10 13 1017.9 - - - - - - - - -
21/11:00pm 21.4 NE 7 11 1018.1 - - - - - - - - -
21/10:30pm 21.1 NE 12 16 1017.8 - - - - - - - - -
21/10:00pm 22.3 N 11 16 1017.9 - - - - - - - - -
21/09:30pm 23.7 N 11 16 1017.8 - - - - - - - - -
21/09:00pm 23.2 N 8 10 1017.8 - - - - - - - - -
21/08:30pm 22.9 N 7 8 1017.6 - - - - - - - - -
21/08:00pm 22.7 N 5 6 1017.8 - - - - - - - - -
21/07:30pm 22.8 NNE 5 7 1017.4 - - - - - - - - -
21/07:00pm 23.0 N 7 9 1017.4 - - - - - - - - -
21/06:30pm 23.3 N 7 8 1017.0 - - - - - - - - -
21/06:00pm 23.6 NNE 8 9 1016.8 - - - - - - - - -
21/05:30pm 23.8 N 8 11 1016.6 - - - - - - - - -
21/05:00pm 24.5 NNE 8 10 1016.4 - - - - - - - - -
21/04:30pm 24.6 NNE 9 12 1016.2 - - - - - - - - -
21/04:00pm 26.2 NNE 12 14 1015.9 - - - - - - - - -
21/03:30pm 26.1 NNE 12 15 1015.9 - 0.0 - - - - - - -
21/03:00pm 26.2 NNE 14 17 1016.2 - 0.0 - - - - - - -
21/02:30pm 26.7 NE 14 17 1016.0 - 0.0 - - - - - - -
21/02:00pm 25.7 NE 16 19 1016.1 - 0.0 - - - - - - -
21/01:30pm 25.2 NNE 14 17 1016.4 - 0.0 - - - - - - -
21/01:00pm 26.2 NE 14 18 1016.6 - 0.0 - - - - - - -
21/12:30pm 26.5 NE 13 16 1016.9 - 0.0 - - - - - - -
21/12:00pm 26.5 NNE 13 17 1017.1 - 0.0 - - - - - - -
21/11:30am 25.0 NNE 12 15 1017.5 - 0.0 - - - - - - -
21/11:00am 24.9 NNE 10 13 1017.9 - 0.0 - - - - - - -
21/10:30am 25.5 NE 11 14 1017.8 - 0.0 - - - - - - -
21/10:00am 25.3 NE 10 12 1018.0 - 0.0 - - - - - - -
21/09:30am 24.0 ENE 10 11 1018.0 - 0.0 - - - - - - -
21/09:00am 22.9 ENE 10 12 1017.9 - 0.0 - - - - - - -
21/08:30am 21.4 ENE 9 11 1017.8 - 0.0 - - - - - - -
21/08:00am 22.0 ENE 8 11 1017.6 - 0.0 - - - - - - -
21/07:30am 20.4 NE 6 7 1017.4 - 0.0 - - - - - - -
21/07:00am 19.9 NE 5 6 1017.1 - 0.0 - - - - - - -
21/06:30am 19.7 NE 5 6 1016.8 - 0.0 - - - - - - -
21/06:00am 19.7 ENE 5 6 1016.4 - 0.0 - - - - - - -
21/05:30am 18.8 SSE 4 5 1016.0 - 0.0 - - - - - - -
21/05:00am 19.2 CALM 0 0 1015.6 - 0.0 - - - - - - -
21/04:30am 19.8 NE 3 4 1015.8 - 0.0 - - - - - - -
21/04:00am 19.4 CALM 0 0 1015.5 - 0.0 - - - - - - -
21/03:30am 19.3 CALM 0 0 1015.9 - 0.0 - - - - - - -
21/03:00am 19.5 ENE 4 5 1015.8 - 0.0 - - - - - - -
21/02:30am 19.5 NE 4 5 1015.8 - 0.0 - - - - - - -
21/02:00am 19.5 NNW 4 5 1016.1 - 0.0 - - - - - - -
21/01:30am 19.5 NNW 2 4 1016.2 - 0.0 - - - - - - -
21/01:00am 20.3 NNE 3 4 1016.5 - 0.0 - - - - - - -
21/12:30am 20.3 NNE 4 5 1016.3 - 0.0 - - - - - - -
21/12:00am 20.4 N 5 6 1016.9 - 0.0 - - - - - - -
 
Date/Time
WST
Temp

°C
Wind Pressure Rain
since 9am
mm
Weather Cloud Vis
km
Sea
Height
m
Swell
Dir
 
Speed
knots
Gust
knots
hPa Trend Height
m
Period
s
Dir
20/11:30pm 20.4 N 4 5 1017.2 - 0.0 - - - - - - -
20/11:00pm 21.2 N 4 5 1017.1 - 0.0 - - - - - - -
20/10:30pm 20.8 N 4 4 1017.4 - 0.0 - - - - - - -
20/10:00pm 21.0 N 5 6 1017.5 - 0.0 - - - - - - -
20/09:30pm 20.8 N 6 6 1017.8 - 0.0 - - - - - - -
20/09:00pm 20.7 NNW 5 5 1018.0 - 0.0 - - - - - - -
20/08:30pm 20.7 N 6 6 1017.7 - 0.0 - - - - - - -
20/08:00pm 21.0 NNW 5 5 1017.5 - 0.0 - - - - - - -
20/07:30pm 21.4 N 5 5 1017.2 - 0.0 - - - - - - -
20/07:00pm 21.8 NNW 4 4 1017.2 - 0.0 - - - - - - -
20/06:30pm 21.8 NW 5 5 1016.8 - 0.0 - - - - - - -
20/06:00pm 22.1 NW 4 5 1016.5 - 0.0 - - - - - - -
20/05:30pm 22.8 WNW 5 7 1016.4 - 0.0 - - - - - - -
20/05:00pm 23.5 WNW 6 7 1015.9 - 0.0 - - - - - - -
20/04:30pm 23.9 WNW 7 8 1016.0 - 0.0 - - - - - - -
20/04:00pm 24.5 WNW 7 9 1015.7 - 0.0 - - - - - - -
20/03:30pm 24.8 NW 8 10 1015.7 - 0.0 - - - - - - -
20/03:00pm 25.0 WNW 9 11 1015.7 - 0.0 - - - - - - -
20/02:30pm 24.6 NW 8 11 1015.7 - 0.0 - - - - - - -
20/02:00pm 25.0 N 9 11 1015.4 - 0.0 - - - - - - -
20/01:30pm 25.0 NNE 11 13 1015.1 - 0.0 - - - - - - -
20/01:00pm 25.6 N 9 11 1015.8 - 0.0 - - - - - - -
20/12:30pm 26.5 NNW 11 13 1016.6 - 0.0 - - - - - - -
20/12:00pm 27.9 ENE 3 6 1016.8 - 0.0 - - - - - - -
20/11:30am 26.9 ENE 5 6 1016.7 - 0.0 - - - - - - -
20/11:00am 26.0 E 6 8 1016.9 - 0.0 - - - - - - -
20/10:30am 25.2 SE 8 10 1017.5 - 0.0 - - - - - - -
20/10:00am 24.8 ESE 8 12 1017.4 - 0.0 - - - - - - -
20/09:30am 24.0 SE 8 10 1017.4 - 0.0 - - - - - - -
20/09:00am 22.1 ESE 9 11 1017.1 - 0.0 - - - - - - -
20/08:30am 20.6 ESE 9 11 1016.8 - 0.0 - - - - - - -
20/08:00am 19.5 SE 8 10 1016.5 - 0.0 - - - - - - -
20/07:30am 17.2 SSE 7 9 1016.7 - 0.0 - - - - - - -
20/07:00am 17.2 S 8 10 1016.4 - 0.0 - - - - - - -
20/06:30am 17.2 SSE 9 11 1015.9 - 0.0 - - - - - - -
20/06:00am 17.5 S 10 14 1015.7 - 0.0 - - - - - - -
20/05:30am 17.5 S 10 13 1015.3 - 0.0 - - - - - - -
20/05:00am 17.3 S 10 13 1015.2 - 0.0 - - - - - - -
20/04:30am 17.7 S 10 15 1015.3 - 0.0 - - - - - - -
20/04:00am 17.2 S 10 11 1015.3 - 0.0 - - - - - - -
20/03:30am 17.4 S 11 13 1015.4 - 0.0 - - - - - - -
20/03:00am 17.8 S 11 14 1015.6 - 0.0 - - - - - - -
20/02:30am 18.0 S 11 14 1015.8 - 0.0 - - - - - - -
20/02:00am 18.1 SSW 10 12 1015.9 - 0.0 - - - - - - -

Other Formats:

Comma delimited format used in spreadsheet applications
http://www.bom.gov.au/fwo/IDW60701/IDW60701.95305.axf

JavaScript Object Notation format (JSON) in row-major order
http://www.bom.gov.au/fwo/IDW60701/IDW60701.95305.json